createdAt,value
2022-09-21T00:01:14.134Z,3.22
2022-09-21T00:03:42.705Z,3.20
2022-09-21T00:06:13.395Z,3.17
2022-09-21T00:08:43.202Z,3.42
2022-09-21T00:11:14.025Z,3.00
2022-09-21T00:13:43.749Z,3.80
2022-09-21T00:16:11.752Z,3.67
2022-09-21T00:18:40.112Z,4.60
2022-09-21T00:21:09.420Z,3.75
2022-09-21T00:23:38.105Z,3.20
2022-09-21T00:26:10.855Z,3.80
2022-09-21T00:28:40.523Z,3.85
2022-09-21T00:31:12.213Z,4.13
2022-09-21T00:33:40.869Z,4.80
2022-09-21T00:36:10.941Z,4.13
2022-09-21T00:38:39.522Z,4.50
2022-09-21T00:41:10.513Z,3.97
2022-09-21T00:43:43.596Z,4.57
2022-09-21T00:46:18.738Z,4.38
2022-09-21T00:48:47.047Z,4.30
2022-09-21T00:51:15.798Z,4.22
2022-09-21T00:53:44.968Z,4.68
2022-09-21T00:56:15.464Z,5.65
2022-09-21T00:58:48.022Z,5.70
2022-09-21T01:01:18.375Z,6.97
2022-09-21T01:03:47.567Z,6.75
2022-09-21T01:06:17.749Z,5.97
2022-09-21T01:08:47.419Z,5.25
2022-09-21T01:11:34.318Z,4.43
2022-09-21T01:14:27.805Z,4.70
2022-09-21T01:17:03.471Z,3.67
2022-09-21T01:20:08.077Z,4.88
2022-09-21T01:22:51.636Z,4.32
2022-09-21T01:25:32.278Z,4.75
2022-09-21T01:28:16.460Z,4.47
2022-09-21T01:30:49.235Z,3.05
2022-09-21T01:33:23.253Z,2.75
2022-09-21T01:35:57.345Z,2.40
2022-09-21T01:38:29.003Z,2.38
2022-09-21T01:41:02.565Z,2.53
2022-09-21T01:43:34.848Z,2.72
2022-09-21T01:46:07.251Z,2.28
2022-09-21T01:48:39.545Z,2.75
2022-09-21T01:51:12.271Z,2.70
2022-09-21T01:53:44.538Z,2.70
2022-09-21T01:56:16.844Z,2.53
2022-09-21T01:58:51.236Z,2.28
2022-09-21T02:01:25.334Z,2.72
2022-09-21T02:03:57.440Z,2.60
2022-09-21T02:06:27.744Z,3.08
2022-09-21T02:08:55.945Z,3.85
2022-09-21T02:11:24.012Z,3.88
2022-09-21T02:13:54.928Z,3.60
2022-09-21T02:16:37.564Z,3.88
2022-09-21T02:19:13.567Z,3.97
2022-09-21T02:21:55.501Z,4.15
2022-09-21T02:24:32.129Z,3.80
2022-09-21T02:27:06.039Z,4.15
2022-09-21T02:29:45.540Z,2.78
2022-09-21T02:32:26.363Z,3.95
2022-09-21T02:35:03.348Z,3.50
2022-09-21T02:37:38.305Z,3.58
2022-09-21T02:40:13.246Z,3.33
2022-09-21T02:42:43.832Z,3.65
2022-09-21T02:45:16.342Z,4.60
2022-09-21T02:47:49.468Z,4.28
2022-09-21T02:50:21.563Z,4.18
2022-09-21T02:52:50.072Z,4.90
2022-09-21T02:55:19.146Z,5.75
2022-09-21T02:57:48.954Z,6.03
2022-09-21T03:00:17.606Z,5.97
2022-09-21T03:02:47.050Z,7.47
2022-09-21T03:05:16.042Z,7.30
2022-09-21T03:07:44.015Z,8.15
2022-09-21T03:10:12.322Z,9.38
2022-09-21T03:12:40.367Z,8.98
2022-09-21T03:15:08.854Z,8.27
2022-09-21T03:17:36.811Z,7.25
2022-09-21T03:20:08.007Z,7.10
2022-09-21T03:22:35.978Z,7.65
2022-09-21T03:25:04.173Z,6.70
2022-09-21T03:27:32.128Z,6.70
2022-09-21T03:30:02.324Z,6.55
2022-09-21T03:32:30.928Z,6.97
2022-09-21T03:34:59.292Z,7.25
2022-09-21T03:37:31.160Z,5.72
2022-09-21T03:40:00.294Z,5.95
2022-09-21T03:42:28.487Z,5.65
2022-09-21T03:44:56.498Z,6.35
2022-09-21T03:47:24.556Z,6.85
2022-09-21T03:49:52.509Z,6.40
2022-09-21T03:52:20.502Z,5.63
2022-09-21T03:54:50.255Z,5.95
2022-09-21T03:57:18.331Z,4.50
2022-09-21T03:59:46.458Z,4.80
2022-09-21T04:02:14.438Z,4.53
2022-09-21T04:04:42.575Z,5.13
2022-09-21T04:07:10.564Z,4.10
2022-09-21T04:09:38.561Z,4.75
2022-09-21T04:12:07.986Z,4.40
2022-09-21T04:14:36.986Z,4.80
2022-09-21T04:17:05.590Z,3.70
2022-09-21T04:19:34.298Z,4.38
2022-09-21T04:22:02.380Z,4.00
2022-09-21T04:24:30.996Z,4.03
2022-09-21T04:26:59.256Z,3.78
2022-09-21T04:29:28.597Z,3.88
2022-09-21T04:31:58.102Z,3.72
2022-09-21T04:34:26.474Z,3.45
2022-09-21T04:36:54.704Z,4.22
2022-09-21T04:39:24.150Z,3.50
2022-09-21T04:41:52.233Z,4.07
2022-09-21T04:44:20.492Z,3.67
2022-09-21T04:46:49.807Z,3.30
2022-09-21T04:49:17.920Z,3.67
2022-09-21T04:51:45.937Z,3.60
2022-09-21T04:54:13.932Z,3.65
2022-09-21T04:56:42.017Z,4.00
2022-09-21T04:59:10.784Z,4.20
2022-09-21T05:01:38.990Z,3.50
2022-09-21T05:04:08.606Z,2.72
2022-09-21T05:06:36.684Z,3.17
2022-09-21T05:09:22.221Z,3.08
2022-09-21T05:11:50.923Z,3.35
2022-09-21T05:14:18.961Z,3.50
2022-09-21T05:16:49.536Z,3.20
2022-09-21T05:19:19.026Z,3.88
2022-09-21T05:21:47.192Z,3.15
2022-09-21T05:24:15.107Z,3.25
2022-09-21T05:26:43.067Z,3.42
2022-09-21T05:29:11.554Z,3.60
2022-09-21T05:31:45.625Z,3.35
2022-09-21T05:34:34.263Z,3.42
2022-09-21T05:50:05.965Z,3.97
2022-09-21T05:52:43.183Z,4.15
2022-09-21T05:55:26.154Z,3.58
2022-09-21T05:58:02.054Z,3.58
2022-09-21T06:00:39.372Z,3.08
2022-09-21T06:03:29.207Z,3.50
2022-09-21T06:05:59.113Z,4.10
2022-09-21T06:08:27.733Z,3.78
2022-09-21T06:10:56.798Z,3.33
2022-09-21T06:13:24.679Z,4.05
2022-09-21T06:15:54.452Z,3.97
2022-09-21T06:18:22.460Z,6.60
2022-09-21T06:20:50.371Z,11.45
2022-09-21T06:23:19.951Z,5.13
2022-09-21T06:25:56.062Z,4.90
2022-09-21T06:28:27.863Z,3.95
2022-09-21T06:30:57.385Z,3.53
2022-09-21T06:33:26.129Z,10.02
2022-09-21T06:35:56.876Z,4.10
2022-09-21T06:38:27.511Z,4.07
2022-09-21T06:40:55.750Z,18.48
2022-09-21T06:43:23.838Z,5.40
2022-09-21T06:45:56.584Z,4.68
2022-09-21T06:48:24.755Z,3.85
2022-09-21T06:50:57.245Z,8.63
2022-09-21T06:53:27.454Z,4.57
2022-09-21T06:55:55.386Z,4.10
2022-09-21T06:58:23.290Z,4.00
2022-09-21T07:00:51.399Z,4.32
2022-09-21T07:03:19.350Z,4.28
2022-09-21T07:05:47.406Z,3.72
2022-09-21T07:11:04.966Z,4.10
2022-09-21T07:13:33.152Z,4.95
2022-09-21T07:16:05.133Z,4.15
2022-09-21T07:18:42.535Z,3.95
2022-09-21T07:21:12.229Z,4.18
2022-09-21T07:23:40.308Z,3.33
2022-09-21T07:26:12.055Z,4.00
2022-09-21T07:28:40.515Z,4.28
2022-09-21T07:31:10.085Z,3.88
2022-09-21T07:33:38.901Z,3.88
2022-09-21T07:36:10.578Z,4.22
2022-09-21T07:38:40.407Z,4.75
2022-09-21T07:41:10.569Z,3.92
2022-09-21T07:43:39.262Z,4.38
2022-09-21T07:46:07.916Z,4.30
2022-09-21T07:48:36.115Z,4.05
2022-09-21T07:51:06.351Z,4.18
2022-09-21T07:53:34.441Z,3.65
2022-09-21T07:56:03.458Z,5.20
2022-09-21T07:58:50.809Z,5.13
2022-09-21T08:01:18.932Z,3.80
2022-09-21T08:03:49.416Z,5.25
2022-09-21T08:06:17.360Z,5.40
2022-09-21T08:08:45.795Z,5.45
2022-09-21T08:11:13.657Z,4.93
2022-09-21T08:13:42.992Z,4.85
2022-09-21T08:16:11.306Z,5.05
2022-09-21T08:18:40.544Z,4.35
2022-09-21T08:21:12.043Z,4.18
2022-09-21T08:23:42.652Z,4.75
2022-09-21T08:26:16.321Z,4.65
2022-09-21T08:28:48.970Z,4.85
2022-09-21T08:31:19.280Z,4.07
2022-09-21T08:33:47.755Z,3.72
2022-09-21T08:36:16.081Z,4.50
2022-09-21T08:38:43.995Z,4.47
2022-09-21T08:41:19.854Z,4.55
2022-09-21T08:43:53.133Z,4.65
2022-09-21T08:46:23.875Z,4.25
2022-09-21T08:48:57.750Z,4.68
2022-09-21T08:51:29.427Z,4.53
2022-09-21T08:54:01.662Z,4.75
2022-09-21T08:56:41.890Z,4.57
2022-09-21T08:59:16.777Z,5.25
2022-09-21T09:01:59.531Z,5.13
2022-09-21T09:04:47.102Z,5.03
2022-09-21T09:07:30.295Z,4.80
2022-09-21T09:10:12.567Z,6.00
2022-09-21T09:12:52.412Z,5.97
2022-09-21T09:15:53.433Z,5.40
2022-09-21T09:18:30.221Z,4.70
2022-09-21T09:21:01.773Z,5.05
2022-09-21T09:23:35.823Z,5.07
2022-09-21T09:26:08.917Z,4.65
2022-09-21T09:28:42.964Z,4.45
2022-09-21T09:31:19.453Z,5.00
2022-09-21T09:33:54.925Z,5.03
2022-09-21T09:36:46.632Z,5.22
2022-09-21T09:39:13.738Z,5.20
2022-09-21T09:42:00.045Z,4.38
2022-09-21T09:44:50.959Z,4.55
2022-09-21T09:47:32.253Z,5.20
2022-09-21T09:50:06.022Z,5.38
2022-09-21T09:52:34.677Z,5.13
2022-09-21T09:55:12.249Z,5.15
2022-09-21T09:57:40.283Z,5.85
2022-09-21T10:00:12.127Z,5.68
2022-09-21T10:02:50.400Z,4.35
2022-09-21T10:05:24.718Z,5.28
2022-09-21T10:07:53.901Z,6.57
2022-09-21T10:10:32.556Z,5.82
2022-09-21T10:13:12.570Z,5.30
2022-09-21T10:15:46.905Z,7.93
2022-09-21T10:18:26.045Z,6.85
2022-09-21T10:20:56.822Z,11.73
2022-09-21T10:23:26.336Z,7.60
2022-09-21T10:25:57.415Z,5.57
2022-09-21T10:28:25.983Z,8.18
2022-09-21T10:31:13.109Z,5.72
2022-09-21T10:33:55.435Z,4.63
2022-09-21T10:36:34.969Z,5.10
2022-09-21T10:39:24.028Z,9.57
2022-09-21T10:42:01.470Z,4.75
2022-09-21T10:44:39.353Z,3.95
2022-09-21T10:47:21.261Z,4.53
2022-09-21T10:49:53.828Z,4.35
2022-09-21T10:52:24.964Z,4.38
2022-09-21T10:54:56.792Z,5.18
2022-09-21T10:57:27.483Z,3.63
2022-09-21T10:59:57.242Z,4.18
2022-09-21T11:02:35.708Z,4.63
2022-09-21T11:05:10.946Z,3.63
2022-09-21T11:07:44.554Z,4.17
2022-09-21T11:10:21.303Z,4.13
2022-09-21T11:13:12.634Z,4.25
2022-09-21T11:15:48.165Z,3.65
2022-09-21T11:18:23.173Z,3.35
2022-09-21T11:20:56.186Z,3.50
2022-09-21T11:23:37.423Z,3.13
2022-09-21T11:26:14.856Z,4.00
2022-09-21T11:28:49.225Z,2.85
2022-09-21T11:31:34.030Z,3.55
2022-09-21T11:34:26.981Z,3.67
2022-09-21T11:37:09.898Z,3.25
2022-09-21T11:39:50.483Z,3.20
2022-09-21T11:42:33.870Z,4.35
2022-09-21T11:45:03.832Z,4.25
2022-09-21T11:47:55.912Z,3.55
2022-09-21T11:50:57.481Z,4.05
2022-09-21T11:53:38.128Z,4.70
2022-09-21T11:56:32.167Z,4.28
2022-09-21T11:59:10.498Z,4.13
2022-09-21T12:02:01.131Z,5.07
2022-09-21T12:04:42.584Z,4.30
2022-09-21T12:07:24.955Z,4.90
2022-09-21T12:10:08.827Z,4.65
2022-09-21T12:12:45.337Z,5.30
2022-09-21T12:15:19.572Z,5.07
2022-09-21T12:17:55.272Z,4.60
2022-09-21T12:20:31.869Z,4.97
2022-09-21T12:23:04.463Z,4.53
2022-09-21T12:25:37.015Z,4.85
2022-09-21T12:28:13.029Z,3.95
2022-09-21T12:30:45.500Z,4.40
2022-09-21T12:33:20.513Z,4.78
2022-09-21T12:38:25.103Z,5.25
2022-09-21T12:41:00.052Z,4.20
2022-09-21T12:43:35.904Z,4.13
2022-09-21T12:46:13.790Z,4.35
2022-09-21T12:48:42.395Z,4.68
2022-09-21T12:51:16.839Z,3.83
2022-09-21T12:53:51.043Z,4.57
2022-09-21T12:56:29.815Z,5.00
2022-09-21T12:59:09.865Z,5.47
2022-09-21T13:01:44.446Z,6.85
2022-09-21T13:04:31.242Z,4.88
2022-09-21T13:07:35.293Z,5.03
2022-09-21T13:10:19.758Z,4.55
2022-09-21T13:12:55.102Z,4.30
2022-09-21T13:15:28.035Z,4.05
2022-09-21T13:18:01.732Z,9.60
2022-09-21T13:20:36.182Z,8.57
2022-09-21T13:23:05.338Z,4.68
2022-09-21T13:25:37.497Z,7.13
2022-09-21T13:28:19.849Z,4.75
2022-09-21T13:30:50.170Z,4.82
2022-09-21T13:33:33.545Z,5.80
2022-09-21T13:36:05.423Z,3.88
2022-09-21T13:38:37.418Z,4.32
2022-09-21T13:41:35.453Z,4.80
2022-09-21T13:44:40.474Z,4.70
2022-09-21T13:47:10.170Z,3.15
2022-09-21T13:49:45.131Z,4.40
2022-09-21T13:52:28.630Z,3.50
2022-09-21T13:55:00.642Z,3.05
2022-09-21T13:57:36.797Z,2.53
2022-09-21T14:00:33.151Z,3.17
2022-09-21T14:03:04.327Z,1.90
2022-09-21T14:05:36.840Z,2.35
2022-09-21T14:08:08.306Z,2.28
2022-09-21T14:10:39.006Z,2.47
2022-09-21T14:13:24.459Z,2.83
2022-09-21T14:15:53.833Z,2.22
2022-09-21T14:18:37.547Z,1.67
2022-09-21T14:21:17.169Z,2.80
2022-09-21T14:24:19.063Z,1.30
2022-09-21T14:27:03.436Z,1.50
2022-09-21T14:29:40.177Z,1.90
2022-09-21T14:32:18.056Z,2.85
2022-09-21T14:34:49.423Z,1.92
2022-09-21T14:37:31.975Z,1.73
2022-09-21T14:40:05.815Z,1.73
2022-09-21T14:42:34.089Z,2.80
2022-09-21T14:45:03.935Z,1.35
2022-09-21T14:47:52.529Z,0.82
2022-09-21T14:50:31.475Z,0.70
2022-09-21T14:53:29.247Z,0.75
2022-09-21T14:56:10.696Z,0.93
2022-09-21T14:58:52.052Z,0.73
2022-09-21T15:01:37.659Z,0.80
2022-09-21T15:04:46.327Z,1.15
2022-09-21T15:07:45.095Z,0.90
2022-09-21T15:10:40.185Z,0.70
2022-09-21T15:13:19.715Z,0.88
2022-09-21T15:16:07.312Z,0.82
2022-09-21T15:18:41.846Z,0.77
2022-09-21T15:21:24.112Z,0.70
2022-09-21T15:23:53.103Z,0.80
2022-09-21T15:26:29.275Z,0.93
2022-09-21T15:29:15.675Z,0.70
2022-09-21T15:34:15.053Z,0.75
2022-09-21T15:36:48.692Z,0.55
2022-09-21T15:39:28.547Z,0.60
2022-09-21T15:42:17.935Z,0.60
2022-09-21T15:44:48.442Z,0.60
2022-09-21T15:47:19.340Z,0.52
2022-09-21T15:49:47.988Z,0.40
2022-09-21T15:52:25.266Z,0.40
2022-09-21T15:54:58.360Z,0.50
2022-09-21T15:57:38.834Z,0.50
2022-09-21T16:00:19.211Z,0.60
2022-09-21T16:03:04.814Z,0.47
2022-09-21T16:05:45.393Z,0.55
2022-09-21T16:08:34.444Z,0.60
2022-09-21T16:11:18.853Z,1.13
2022-09-21T16:14:05.880Z,0.75
2022-09-21T16:16:34.142Z,0.90
2022-09-21T16:19:02.093Z,1.00
2022-09-21T16:21:33.572Z,1.02
2022-09-21T16:24:17.944Z,1.00
2022-09-21T16:26:58.029Z,1.00
2022-09-21T16:29:27.791Z,0.90
2022-09-21T16:32:26.381Z,0.90
2022-09-21T16:34:55.528Z,1.13
2022-09-21T16:37:28.975Z,0.80
2022-09-21T16:39:59.997Z,1.17
2022-09-21T16:42:32.758Z,1.70
2022-09-21T16:45:01.399Z,1.73
2022-09-21T16:47:29.807Z,1.60
2022-09-21T16:50:01.458Z,1.25
2022-09-21T16:52:30.847Z,1.52
2022-09-21T16:55:01.216Z,2.05
2022-09-21T16:57:29.274Z,1.00
2022-09-21T16:59:58.164Z,1.20
2022-09-21T17:02:26.113Z,1.20
2022-09-21T17:04:54.109Z,0.80
2022-09-21T17:07:22.081Z,0.95
2022-09-21T17:09:50.574Z,0.88
2022-09-21T17:12:20.289Z,0.70
2022-09-21T17:14:50.041Z,1.00
2022-09-21T17:17:21.214Z,0.82
2022-09-21T17:19:50.710Z,0.65
2022-09-21T17:22:19.290Z,1.40
2022-09-21T17:24:51.813Z,1.15
2022-09-21T17:27:25.319Z,1.48
2022-09-21T17:29:55.161Z,1.30
2022-09-21T17:32:25.183Z,1.77
2022-09-21T17:34:58.574Z,1.60
2022-09-21T17:37:26.808Z,1.80
2022-09-21T17:39:54.750Z,2.53
2022-09-21T17:42:25.613Z,2.63
2022-09-21T17:45:12.850Z,2.65
2022-09-21T17:47:41.940Z,2.35
2022-09-21T17:50:19.548Z,2.17
2022-09-21T17:53:05.637Z,2.38
2022-09-21T17:55:34.038Z,2.17
2022-09-21T17:58:16.632Z,1.70
2022-09-21T18:00:53.021Z,1.58
2022-09-21T18:03:23.429Z,1.80
2022-09-21T18:05:55.774Z,1.67
2022-09-21T18:08:26.408Z,2.20
2022-09-21T18:11:03.633Z,2.55
2022-09-21T18:13:42.164Z,2.33
2022-09-21T18:16:23.187Z,2.58
2022-09-21T18:18:59.363Z,2.53
2022-09-21T18:24:30.802Z,2.40
2022-09-21T18:27:00.181Z,2.55
2022-09-21T18:29:41.151Z,3.17
2022-09-21T18:32:29.316Z,3.10
2022-09-21T18:35:10.854Z,2.70
2022-09-21T18:37:49.919Z,3.00
2022-09-21T18:40:23.443Z,2.78
2022-09-21T18:42:57.317Z,2.92
2022-09-21T18:45:31.843Z,2.65
2022-09-21T18:48:21.367Z,2.95
2022-09-21T18:50:57.913Z,2.90
2022-09-21T18:53:33.908Z,2.65
2022-09-21T18:56:02.516Z,2.72
2022-09-21T18:58:31.104Z,2.58
2022-09-21T19:01:01.164Z,2.20
2022-09-21T19:03:29.901Z,1.90
2022-09-21T19:06:21.151Z,1.83
2022-09-21T19:08:59.237Z,2.15
2022-09-21T19:11:34.714Z,2.03
2022-09-21T19:14:09.696Z,2.10
2022-09-21T19:16:47.919Z,1.52
2022-09-21T19:19:37.331Z,2.00
2022-09-21T19:22:13.222Z,1.67
2022-09-21T19:24:49.908Z,1.80
2022-09-21T19:27:27.550Z,2.35
2022-09-21T19:30:04.514Z,1.85
2022-09-21T19:32:44.868Z,1.55
2022-09-21T19:35:19.200Z,2.03
2022-09-21T19:37:48.280Z,2.28
2022-09-21T19:40:17.793Z,1.98
2022-09-21T19:43:01.656Z,2.28
2022-09-21T19:45:39.942Z,1.90
2022-09-21T19:48:14.767Z,2.25
2022-09-21T19:50:49.653Z,2.10
2022-09-21T19:53:35.798Z,3.03
2022-09-21T19:56:26.868Z,2.28
2022-09-21T19:59:12.793Z,2.28
2022-09-21T20:01:44.392Z,2.53
2022-09-21T20:04:16.122Z,2.80
2022-09-21T20:06:54.216Z,2.50
2022-09-21T20:09:29.060Z,2.92
2022-09-21T20:12:07.795Z,3.05
2022-09-21T20:14:40.820Z,3.08
2022-09-21T20:17:12.240Z,3.45
2022-09-21T20:19:55.824Z,2.88
2022-09-21T20:22:33.638Z,2.72
2022-09-21T20:25:07.475Z,3.05
2022-09-21T20:27:40.095Z,3.67
2022-09-21T20:30:10.719Z,3.60
2022-09-21T20:32:42.135Z,3.75
2022-09-21T20:35:16.937Z,3.60
2022-09-21T20:37:45.038Z,3.58
2022-09-21T20:40:13.852Z,3.00
2022-09-21T20:42:42.804Z,2.67
2022-09-21T20:45:12.922Z,2.33
2022-09-21T20:47:41.021Z,2.08
2022-09-21T20:50:12.728Z,2.33
2022-09-21T20:52:43.060Z,2.55
2022-09-21T20:55:13.479Z,2.20
2022-09-21T20:57:41.646Z,2.08
2022-09-21T21:00:12.404Z,2.42
2022-09-21T21:02:40.646Z,2.67
2022-09-21T21:05:10.377Z,2.55
2022-09-21T21:07:38.771Z,2.67
2022-09-21T21:10:11.816Z,2.53
2022-09-21T21:12:40.076Z,2.75
2022-09-21T21:15:09.064Z,2.50
2022-09-21T21:17:37.096Z,2.65
2022-09-21T21:20:06.486Z,2.60
2022-09-21T21:22:36.243Z,2.42
2022-09-21T21:25:04.752Z,4.07
2022-09-21T21:27:33.984Z,5.00
2022-09-21T21:30:02.024Z,4.60
2022-09-21T21:32:32.367Z,3.72
2022-09-21T21:35:00.469Z,3.35
2022-09-21T21:37:29.263Z,3.50
2022-09-21T21:39:57.704Z,3.67
2022-09-21T21:42:29.251Z,3.10
2022-09-21T21:44:59.065Z,3.13
2022-09-21T21:47:39.447Z,3.47
2022-09-21T21:50:09.780Z,3.03
2022-09-21T21:52:37.976Z,3.10
2022-09-21T21:55:07.022Z,3.90
2022-09-21T21:57:35.024Z,4.32
2022-09-21T22:00:06.708Z,4.40
2022-09-21T22:02:34.807Z,4.10
2022-09-21T22:05:02.828Z,4.00
2022-09-21T22:07:30.825Z,3.90
2022-09-21T22:09:58.688Z,4.28
2022-09-21T22:12:26.667Z,3.95
2022-09-21T22:14:54.654Z,4.38
2022-09-21T22:17:24.164Z,4.50
2022-09-21T22:19:52.284Z,4.18
2022-09-21T22:22:20.286Z,3.70
2022-09-21T22:24:48.292Z,3.63
2022-09-21T22:27:16.392Z,4.03
2022-09-21T22:29:44.947Z,3.40
2022-09-21T22:32:12.845Z,3.42
2022-09-21T22:34:42.342Z,3.25
2022-09-21T22:37:10.258Z,3.50
2022-09-21T22:39:38.450Z,3.00
2022-09-21T22:42:06.575Z,3.03
2022-09-21T22:44:34.769Z,3.30
2022-09-21T22:47:02.686Z,3.17
2022-09-21T22:49:30.619Z,3.38
2022-09-21T22:52:00.105Z,3.65
2022-09-21T22:54:28.140Z,3.63
2022-09-21T22:56:56.015Z,3.10
2022-09-21T22:59:24.040Z,3.40
2022-09-21T23:01:52.042Z,3.60
2022-09-21T23:04:21.161Z,2.88
2022-09-21T23:06:50.203Z,2.55
2022-09-21T23:09:21.692Z,2.35
2022-09-21T23:11:53.039Z,2.67
2022-09-21T23:14:22.108Z,2.50
2022-09-21T23:16:50.515Z,2.30
2022-09-21T23:19:18.413Z,2.00
2022-09-21T23:21:49.421Z,2.55
2022-09-21T23:24:19.634Z,2.45
2022-09-21T23:26:50.487Z,2.78
2022-09-21T23:29:18.409Z,3.15
2022-09-21T23:31:46.657Z,3.80
2022-09-21T23:34:15.601Z,3.60
2022-09-21T23:36:43.881Z,3.50
2022-09-21T23:39:13.289Z,3.40
2022-09-21T23:41:43.512Z,3.03
2022-09-21T23:44:12.513Z,2.53
2022-09-21T23:46:41.736Z,3.38
2022-09-21T23:49:09.923Z,2.60
2022-09-21T23:51:37.930Z,3.25
2022-09-21T23:54:06.420Z,2.60
2022-09-21T23:56:34.887Z,2.90
2022-09-21T23:59:05.456Z,3.15
